Rechercher aéroport 
image banner adimage banner adimage banner ad
image banner ad

CN23 - Harvard

Situé à Yermo, United States

ICAO - CN23, IATA -

Données fournies par Airmate  

Information générale

Coordonnées: N34°57'42" W116°40'31"
Élévation : 1825 feet MSL.
Variation magnétique : 14° East
Voir autres Aéroports à California

Données opérationnelles

Special qualification required
Heure actuelle UTC:
Heure actuelle locale:
Météo à : KDAG - Barstow-Daggett ( 16 km )
METAR: KDAG 020550Z AUTO 27011G21KT 10SM CLR 33/02 A3003 RMK AO2 SLP135 T03330022 10406 20322 51021
TAF: KDAG 020520Z 0206/0306 27010KT P6SM SKC FM022000 VRB05KT P6SM SKC FM030200 27011G17KT P6SM SKC
Voir NOTAMs / SUP AIP / TFR affectant cet aéroport [VIEW]
Fréquences de communication: [VIEW]

Pistes:

Identifiant RWYQFULongueur (ft)Largeur (ft)SurfaceLDA (ft)
072640100EARTH
252640100EARTH

Coordonnées de l'aéroport

Adresse: Yermo United States

Vue satellite de CN23